createdAt,value
2024-02-14T10:59:47.556Z,2.10
2024-02-14T11:02:52.822Z,1.30
2024-02-14T11:06:02.335Z,1.10
2024-02-14T11:09:10.091Z,0.75
2024-02-14T11:12:16.102Z,2.00
2024-02-14T11:15:23.294Z,1.98
2024-02-14T11:18:31.997Z,1.15
2024-02-14T11:21:38.818Z,2.03
2024-02-14T11:24:43.842Z,1.13
2024-02-14T11:27:48.634Z,1.23
2024-02-14T11:30:56.564Z,1.25
2024-02-14T11:34:06.106Z,5.28
2024-02-14T11:37:10.482Z,0.88
2024-02-14T11:40:14.663Z,1.02
2024-02-14T11:43:19.168Z,1.58
2024-02-14T11:46:24.604Z,2.78
2024-02-14T11:49:29.475Z,1.65
2024-02-14T11:52:34.616Z,2.88
2024-02-14T11:55:39.417Z,2.55
2024-02-14T11:58:53.298Z,1.05
2024-02-14T12:02:06.800Z,0.98
2024-02-14T12:16:04.213Z,5.85
2024-02-14T12:19:11.036Z,1.42
2024-02-14T12:22:19.163Z,1.02
2024-02-14T12:25:29.929Z,1.35
2024-02-14T12:28:36.483Z,3.60
2024-02-14T12:31:44.969Z,2.95
2024-02-14T12:34:51.795Z,1.83
2024-02-14T12:37:55.885Z,2.88
2024-02-14T12:40:59.413Z,7.40
2024-02-14T12:44:04.208Z,3.50
2024-02-14T12:47:08.960Z,1.45
2024-02-14T12:50:16.850Z,3.97
2024-02-14T12:53:22.229Z,1.40
2024-02-14T12:56:26.089Z,1.30
2024-02-14T12:59:30.131Z,2.30
2024-02-14T13:02:36.508Z,1.55
2024-02-14T13:05:46.084Z,1.70
2024-02-14T13:09:04.080Z,1.85
2024-02-14T13:12:10.849Z,4.95
2024-02-14T13:15:15.382Z,4.32
2024-02-14T13:18:21.025Z,2.08
2024-02-14T13:21:30.533Z,2.67
2024-02-14T13:24:35.828Z,2.30
2024-02-14T13:27:42.913Z,6.63
2024-02-14T13:30:47.781Z,2.10
2024-02-14T13:33:51.714Z,4.15
2024-02-14T13:36:57.873Z,2.65
2024-02-14T13:40:02.227Z,2.65
2024-02-14T13:43:08.565Z,4.10
2024-02-14T13:46:12.292Z,6.97
2024-02-14T13:49:23.791Z,4.60
2024-02-14T13:52:30.127Z,4.53
2024-02-14T13:55:36.289Z,6.60
2024-02-14T13:58:43.315Z,6.47
2024-02-14T14:01:49.674Z,5.43
2024-02-14T14:04:54.771Z,5.65
2024-02-14T14:08:01.801Z,4.85
2024-02-14T14:11:05.553Z,3.40
2024-02-14T14:14:12.608Z,2.97
2024-02-14T14:17:16.246Z,3.53
2024-02-14T14:20:21.323Z,10.07
2024-02-14T14:23:27.584Z,4.53
2024-02-14T14:26:32.686Z,2.15
2024-02-14T14:29:36.844Z,3.72
2024-02-14T14:32:41.327Z,6.82
2024-02-14T14:35:46.857Z,3.65
2024-02-14T14:38:52.580Z,6.60
2024-02-14T14:41:59.362Z,7.05
2024-02-14T14:45:06.001Z,5.43
2024-02-14T14:48:16.494Z,2.70
2024-02-14T14:51:27.516Z,8.90
2024-02-14T14:54:33.487Z,3.78
2024-02-14T14:57:46.237Z,3.92
2024-02-14T15:00:54.133Z,4.22
2024-02-14T15:04:51.329Z,2.83
2024-02-14T15:07:57.629Z,3.13
2024-02-14T15:11:03.126Z,4.15
2024-02-14T15:14:08.417Z,5.10
2024-02-14T15:17:14.712Z,2.85
2024-02-14T15:20:19.144Z,4.78
2024-02-14T15:23:22.991Z,2.33
2024-02-14T15:26:28.486Z,6.57
2024-02-14T15:29:49.990Z,4.07
2024-02-14T15:33:14.401Z,3.85
2024-02-14T15:36:19.851Z,13.50
2024-02-14T15:39:24.224Z,12.27
2024-02-14T15:42:35.073Z,7.43
2024-02-14T15:45:40.309Z,4.80
2024-02-14T15:48:45.824Z,5.68
2024-02-14T15:51:51.615Z,2.70
2024-02-14T15:54:55.455Z,4.50
2024-02-14T15:58:29.252Z,4.55
2024-02-14T16:02:04.564Z,2.28
2024-02-14T16:05:09.339Z,3.65
2024-02-14T16:08:16.926Z,4.07
2024-02-14T16:11:20.972Z,3.90
2024-02-14T16:14:29.260Z,4.15
2024-02-14T16:17:35.371Z,2.50
2024-02-14T16:20:40.634Z,10.88
2024-02-14T16:23:47.020Z,6.70
2024-02-14T16:26:50.884Z,2.65
2024-02-14T16:29:56.267Z,5.55
2024-02-14T16:33:02.286Z,6.95
2024-02-14T16:36:06.359Z,2.63
2024-02-14T16:39:21.392Z,4.90
2024-02-14T16:42:34.098Z,3.47
2024-02-14T16:45:43.320Z,2.35
2024-02-14T16:48:47.816Z,4.75
2024-02-14T16:51:52.108Z,4.22
2024-02-14T16:54:55.797Z,7.65
2024-02-14T16:58:04.579Z,8.00
2024-02-14T17:01:10.198Z,5.68
2024-02-14T17:04:14.189Z,4.30
2024-02-14T17:07:18.064Z,5.93
2024-02-14T17:10:22.276Z,5.50
2024-02-14T17:13:26.099Z,5.25
2024-02-14T17:16:32.389Z,7.47
2024-02-14T17:19:37.746Z,5.97
2024-02-14T17:22:44.526Z,5.63
2024-02-14T17:25:51.149Z,5.40
2024-02-14T17:28:54.902Z,6.72
2024-02-14T17:32:03.165Z,5.88
2024-02-14T17:35:17.639Z,14.77
2024-02-14T17:38:27.209Z,9.18
2024-02-14T17:41:35.789Z,9.18
2024-02-14T17:44:42.369Z,8.05
2024-02-14T17:47:52.312Z,16.83
2024-02-14T17:50:58.510Z,9.43
2024-02-14T17:54:09.093Z,15.20
2024-02-14T17:57:20.293Z,8.35
2024-02-14T18:00:27.116Z,5.93
2024-02-14T18:03:32.837Z,6.03
2024-02-14T18:06:38.770Z,6.45
2024-02-14T18:09:48.267Z,8.27
2024-02-14T18:12:54.248Z,10.88
2024-02-14T18:16:12.480Z,12.07
2024-02-14T18:19:25.409Z,12.27
2024-02-14T18:22:31.137Z,15.52
2024-02-14T18:25:37.361Z,9.07
2024-02-14T18:28:45.221Z,11.35
2024-02-14T18:31:53.951Z,8.70
2024-02-14T18:35:01.699Z,8.57
2024-02-14T18:38:10.823Z,7.70
2024-02-14T18:41:16.045Z,11.68
2024-02-14T18:44:20.251Z,11.00
2024-02-14T18:47:24.553Z,8.70
2024-02-14T18:50:31.071Z,6.70
2024-02-14T18:53:37.919Z,8.23
2024-02-14T18:56:45.054Z,11.98
2024-02-14T18:59:54.188Z,9.52
2024-02-14T19:02:58.910Z,12.63
2024-02-14T19:06:04.966Z,9.60
2024-02-14T19:09:13.538Z,11.40
2024-02-14T19:12:21.300Z,10.63
2024-02-14T19:15:30.306Z,10.80
2024-02-14T19:18:42.174Z,11.43
2024-02-14T19:21:53.007Z,10.15
2024-02-14T19:24:57.741Z,16.33
2024-02-14T19:28:03.338Z,8.40
2024-02-14T19:31:07.734Z,11.98
2024-02-14T19:34:16.101Z,11.50
2024-02-14T19:37:24.285Z,11.48
2024-02-14T19:40:28.849Z,11.15
2024-02-14T19:43:39.390Z,14.05
2024-02-14T19:46:44.335Z,23.13
2024-02-14T19:49:48.064Z,11.40
2024-02-14T19:52:58.194Z,14.32
2024-02-14T19:56:02.375Z,9.98
2024-02-14T19:59:16.438Z,10.07
2024-02-14T20:02:20.093Z,11.00
2024-02-14T20:05:26.305Z,17.20
2024-02-14T20:08:31.702Z,12.32
2024-02-14T20:11:36.017Z,12.80
2024-02-14T20:14:40.325Z,11.90
2024-02-14T20:17:53.249Z,16.15
2024-02-14T20:21:00.247Z,12.63
2024-02-14T20:24:10.585Z,12.00
2024-02-14T20:27:16.504Z,14.85
2024-02-14T20:30:24.542Z,15.23
2024-02-14T20:33:29.206Z,11.85
2024-02-14T20:36:34.820Z,11.60
2024-02-14T20:39:43.645Z,15.05
2024-02-14T20:42:48.557Z,11.88
2024-02-14T20:45:54.462Z,18.60
2024-02-14T20:49:01.783Z,15.43
2024-02-14T20:52:06.893Z,11.13
2024-02-14T20:55:30.704Z,14.63
2024-02-14T20:58:56.399Z,12.98
2024-02-14T21:02:12.297Z,15.23
2024-02-14T21:05:19.553Z,18.48
2024-02-14T21:12:10.061Z,10.32
2024-02-14T21:15:20.535Z,13.73
2024-02-14T21:18:25.030Z,12.88
2024-02-14T21:21:29.385Z,12.15
2024-02-14T21:24:33.756Z,18.23
2024-02-14T21:27:38.000Z,20.33
2024-02-14T21:30:43.252Z,9.93
2024-02-14T21:33:47.797Z,11.77
2024-02-14T21:36:51.749Z,10.45
2024-02-14T21:39:55.765Z,20.20
2024-02-14T21:42:59.567Z,8.80
2024-02-14T21:46:05.063Z,12.50
2024-02-14T21:49:15.769Z,10.13
2024-02-14T21:52:22.701Z,11.60
2024-02-14T21:55:27.268Z,10.85
2024-02-14T21:58:31.614Z,13.43
2024-02-14T22:01:38.379Z,14.10
2024-02-14T22:04:42.836Z,7.28
2024-02-14T22:07:52.226Z,9.73
2024-02-14T22:10:56.707Z,11.07
2024-02-14T22:14:07.878Z,10.10
2024-02-14T22:17:18.640Z,9.30
2024-02-14T22:20:24.675Z,10.45
2024-02-14T22:23:33.037Z,15.65
2024-02-14T22:26:39.440Z,11.30
2024-02-14T22:29:43.347Z,9.90
2024-02-14T22:32:49.191Z,9.15
2024-02-14T22:35:54.745Z,15.50
2024-02-14T22:38:59.272Z,8.98
2024-02-14T22:42:05.890Z,12.32
2024-02-14T22:45:11.824Z,9.18
2024-02-14T22:48:18.639Z,7.53
2024-02-14T22:51:25.298Z,13.43
2024-02-14T22:54:29.273Z,11.88
2024-02-14T22:57:34.907Z,14.10
2024-02-14T23:00:40.152Z,12.35
2024-02-14T23:03:56.819Z,12.75
2024-02-14T23:12:12.499Z,15.52
2024-02-14T23:15:19.646Z,9.35
2024-02-14T23:18:31.787Z,9.57
2024-02-14T23:21:39.732Z,10.13
2024-02-14T23:24:45.015Z,12.48
2024-02-14T23:27:49.158Z,12.27
2024-02-14T23:30:55.216Z,11.15
2024-02-14T23:34:14.252Z,10.00
2024-02-14T23:37:25.251Z,10.98
2024-02-14T23:40:32.705Z,10.10
2024-02-14T23:43:41.958Z,7.25
2024-02-14T23:46:50.735Z,14.40
2024-02-14T23:51:14.042Z,7.88
2024-02-14T23:54:58.485Z,10.32
2024-02-14T23:58:02.705Z,8.52
